createdAt,value
2023-02-28T00:00:05.703Z,-0.49
2023-02-28T00:01:05.707Z,-0.49
2023-02-28T00:02:05.716Z,-0.51
2023-02-28T00:03:05.802Z,-0.49
2023-02-28T00:04:05.684Z,-0.51
2023-02-28T00:05:05.662Z,-0.51
2023-02-28T00:06:05.666Z,-0.52
2023-02-28T00:07:05.647Z,-0.52
2023-02-28T00:08:05.630Z,-0.52
2023-02-28T00:09:05.635Z,-0.49
2023-02-28T00:10:05.628Z,-0.49
2023-02-28T00:11:05.607Z,-0.51
2023-02-28T00:12:05.599Z,-0.52
2023-02-28T00:13:05.875Z,-0.52
2023-02-28T00:14:05.571Z,-0.52
2023-02-28T00:15:05.561Z,-0.51
2023-02-28T00:16:05.563Z,-0.49
2023-02-28T00:17:05.541Z,-0.49
2023-02-28T00:18:05.541Z,-0.51
2023-02-28T00:19:05.523Z,-0.51
2023-02-28T00:20:05.510Z,-0.49
2023-02-28T00:21:06.119Z,-0.49
2023-02-28T00:22:05.510Z,-0.51
2023-02-28T00:23:05.484Z,-0.51
2023-02-28T00:24:05.484Z,-0.51
2023-02-28T00:25:05.463Z,-0.49
2023-02-28T00:26:05.466Z,-0.49
2023-02-28T00:27:05.444Z,-0.49
2023-02-28T00:28:05.443Z,-0.47
2023-02-28T00:29:05.422Z,-0.49
2023-02-28T00:30:05.424Z,-0.47
2023-02-28T00:31:05.491Z,-0.49
2023-02-28T00:32:05.548Z,-0.49
2023-02-28T00:33:05.383Z,-0.51
2023-02-28T00:34:05.379Z,-0.47
2023-02-28T00:35:05.377Z,-0.49
2023-02-28T00:36:05.353Z,-0.51
2023-02-28T00:37:05.341Z,-0.49
2023-02-28T00:38:05.344Z,-0.51
2023-02-28T00:39:05.326Z,-0.51
2023-02-28T00:40:05.313Z,-0.52
2023-02-28T00:41:05.359Z,-0.51
2023-02-28T00:42:05.325Z,-0.51
2023-02-28T00:43:05.294Z,-0.52
2023-02-28T00:44:05.285Z,-0.49
2023-02-28T00:45:05.272Z,-0.51
2023-02-28T00:46:05.621Z,-0.49
2023-02-28T00:47:05.245Z,-0.47
2023-02-28T00:48:05.242Z,-0.49
2023-02-28T00:49:05.315Z,-0.51
2023-02-28T00:50:05.223Z,-0.47
2023-02-28T00:51:05.201Z,-0.51
2023-02-28T00:52:05.639Z,-0.49
2023-02-28T00:53:05.202Z,-0.49
2023-02-28T00:54:05.188Z,-0.49
2023-02-28T00:55:05.167Z,-0.47
2023-02-28T00:56:05.163Z,-0.49
2023-02-28T00:57:05.162Z,-0.51
2023-02-28T00:58:05.156Z,-0.52
2023-02-28T00:59:05.118Z,-0.51
2023-02-28T01:00:05.126Z,-0.49
2023-02-28T01:01:05.288Z,-0.51
2023-02-28T01:02:05.613Z,-0.52
2023-02-28T01:03:05.076Z,-0.51
2023-02-28T01:04:05.087Z,-0.52
2023-02-28T01:05:05.061Z,-0.51
2023-02-28T01:06:05.067Z,-0.51
2023-02-28T01:07:05.045Z,-0.51
2023-02-28T01:08:05.038Z,-0.51
2023-02-28T01:09:05.022Z,-0.52
2023-02-28T01:10:05.021Z,-0.51
2023-02-28T01:11:05.012Z,-0.54
2023-02-28T01:12:05.677Z,-0.52
2023-02-28T01:13:04.978Z,-0.54
2023-02-28T01:14:04.978Z,-0.54
2023-02-28T01:15:04.978Z,-0.54
2023-02-28T01:16:05.021Z,-0.54
2023-02-28T01:17:04.951Z,-0.54
2023-02-28T01:18:04.948Z,-0.52
2023-02-28T01:19:04.939Z,-0.54
2023-02-28T01:20:04.924Z,-0.54
2023-02-28T01:21:05.705Z,-0.52
2023-02-28T01:22:05.882Z,-0.52
2023-02-28T01:23:04.881Z,-0.51
2023-02-28T01:24:04.893Z,-0.52
2023-02-28T01:25:04.883Z,-0.51
2023-02-28T01:26:04.864Z,-0.51
2023-02-28T01:27:04.842Z,-0.54
2023-02-28T01:28:04.852Z,-0.52
2023-02-28T01:29:04.819Z,-0.54
2023-02-28T01:30:04.833Z,-0.52
2023-02-28T01:31:04.920Z,-0.52
2023-02-28T01:32:04.845Z,-0.54
2023-02-28T01:33:05.436Z,-0.52
2023-02-28T01:34:04.803Z,-0.52
2023-02-28T01:35:04.870Z,-0.54
2023-02-28T01:36:04.862Z,-0.52
2023-02-28T01:37:04.753Z,-0.54
2023-02-28T01:38:20.352Z,-0.54
2023-02-28T01:39:05.729Z,-0.54
2023-02-28T01:40:04.721Z,-0.52
2023-02-28T01:41:04.709Z,-0.51
2023-02-28T01:42:04.701Z,-0.52
2023-02-28T01:43:04.690Z,-0.52
2023-02-28T01:44:04.684Z,-0.54
2023-02-28T01:45:04.671Z,-0.52
2023-02-28T01:46:04.693Z,-0.52
2023-02-28T01:47:04.640Z,-0.54
2023-02-28T01:48:04.639Z,-0.54
2023-02-28T01:49:05.432Z,-0.54
2023-02-28T01:50:04.640Z,-0.54
2023-02-28T01:51:04.614Z,-0.52
2023-02-28T01:52:04.603Z,-0.54
2023-02-28T01:53:04.601Z,-0.54
2023-02-28T01:54:04.581Z,-0.55
2023-02-28T01:55:04.560Z,-0.54
2023-02-28T01:56:04.569Z,-0.54
2023-02-28T01:57:04.551Z,-0.55
2023-02-28T01:58:04.541Z,-0.55
2023-02-28T01:59:04.700Z,-0.54
2023-02-28T02:00:04.520Z,-0.54
2023-02-28T02:01:04.512Z,-0.55
2023-02-28T02:02:04.513Z,-0.54
2023-02-28T02:03:04.652Z,-0.54
2023-02-28T02:04:04.485Z,-0.54
2023-02-28T02:05:04.460Z,-0.55
2023-02-28T02:06:04.460Z,-0.54
2023-02-28T02:07:04.558Z,-0.55
2023-02-28T02:08:04.441Z,-0.55
2023-02-28T02:09:04.422Z,-0.57
2023-02-28T02:10:04.424Z,-0.55
2023-02-28T02:11:04.405Z,-0.55
2023-02-28T02:12:04.413Z,-0.58
2023-02-28T02:13:04.391Z,-0.60
2023-02-28T02:14:04.382Z,-0.57
2023-02-28T02:15:04.366Z,-0.58
2023-02-28T02:16:04.378Z,-0.57
2023-02-28T02:17:04.353Z,-0.58
2023-02-28T02:18:04.343Z,-0.60
2023-02-28T02:19:04.323Z,-0.58
2023-02-28T02:20:04.319Z,-0.58
2023-02-28T02:21:04.313Z,-0.57
2023-02-28T02:22:04.318Z,-0.58
2023-02-28T02:23:04.290Z,-0.58
2023-02-28T02:24:04.287Z,-0.58
2023-02-28T02:25:04.264Z,-0.60
2023-02-28T02:26:04.253Z,-0.60
2023-02-28T02:27:04.243Z,-0.60
2023-02-28T02:28:04.264Z,-0.58
2023-02-28T02:29:04.322Z,-0.57
2023-02-28T02:30:08.233Z,-0.58
2023-02-28T02:31:04.221Z,-0.60
2023-02-28T02:32:04.231Z,-0.58
2023-02-28T02:33:04.213Z,-0.60
2023-02-28T02:34:04.194Z,-0.60
2023-02-28T02:35:04.170Z,-0.60
2023-02-28T02:36:04.182Z,-0.60
2023-02-28T02:37:04.146Z,-0.60
2023-02-28T02:38:04.152Z,-0.60
2023-02-28T02:39:04.150Z,-0.60
2023-02-28T02:40:04.126Z,-0.61
2023-02-28T02:41:04.116Z,-0.58
2023-02-28T02:42:04.112Z,-0.60
2023-02-28T02:43:04.084Z,-0.58
2023-02-28T02:44:04.087Z,-0.57
2023-02-28T02:45:04.070Z,-0.58
2023-02-28T02:46:04.067Z,-0.57
2023-02-28T02:47:04.048Z,-0.58
2023-02-28T02:48:04.069Z,-0.57
2023-02-28T02:49:04.029Z,-0.57
2023-02-28T02:50:04.053Z,-0.60
2023-02-28T02:51:04.021Z,-0.60
2023-02-28T02:52:04.031Z,-0.60
2023-02-28T02:53:03.990Z,-0.60
2023-02-28T02:54:04.025Z,-0.60
2023-02-28T02:55:03.969Z,-0.61
2023-02-28T02:56:03.969Z,-0.58
2023-02-28T02:57:03.955Z,-0.60
2023-02-28T02:58:03.964Z,-0.60
2023-02-28T02:59:03.931Z,-0.60
2023-02-28T03:00:03.930Z,-0.60
2023-02-28T03:01:03.924Z,-0.58
2023-02-28T03:02:03.910Z,-0.58
2023-02-28T03:03:03.910Z,-0.57
2023-02-28T03:04:04.011Z,-0.57
2023-02-28T03:05:03.877Z,-0.54
2023-02-28T03:06:03.933Z,-0.57
2023-02-28T03:07:03.852Z,-0.55
2023-02-28T03:08:03.855Z,-0.57
2023-02-28T03:09:03.838Z,-0.60
2023-02-28T03:10:03.877Z,-0.58
2023-02-28T03:11:03.819Z,-0.57
2023-02-28T03:12:03.814Z,-0.57
2023-02-28T03:13:03.798Z,-0.57
2023-02-28T03:14:03.794Z,-0.58
2023-02-28T03:15:03.784Z,-0.58
2023-02-28T03:16:03.807Z,-0.57
2023-02-28T03:17:03.761Z,-0.58
2023-02-28T03:18:03.755Z,-0.58
2023-02-28T03:19:03.965Z,-0.57
2023-02-28T03:20:03.736Z,-0.58
2023-02-28T03:21:03.714Z,-0.58
2023-02-28T03:22:03.716Z,-0.55
2023-02-28T03:23:03.718Z,-0.54
2023-02-28T03:24:03.706Z,-0.58
2023-02-28T03:25:03.676Z,-0.58
2023-02-28T03:26:03.676Z,-0.57
2023-02-28T03:27:03.658Z,-0.54
2023-02-28T03:28:03.666Z,-0.54
2023-02-28T03:29:03.638Z,-0.57
2023-02-28T03:30:03.638Z,-0.54
2023-02-28T03:31:03.622Z,-0.54
2023-02-28T03:32:03.755Z,-0.52
2023-02-28T03:33:03.608Z,-0.52
2023-02-28T03:34:03.604Z,-0.54
2023-02-28T03:35:03.580Z,-0.54
2023-02-28T03:36:03.580Z,-0.54
2023-02-28T03:37:03.584Z,-0.52
2023-02-28T03:38:03.576Z,-0.52
2023-02-28T03:39:03.548Z,-0.52
2023-02-28T03:40:03.550Z,-0.52
2023-02-28T03:41:03.543Z,-0.54
2023-02-28T03:42:03.522Z,-0.54
2023-02-28T03:43:03.520Z,-0.52
2023-02-28T03:44:03.509Z,-0.54
2023-02-28T03:45:03.483Z,-0.51
2023-02-28T03:46:03.547Z,-0.52
2023-02-28T03:47:03.463Z,-0.52
2023-02-28T03:48:03.463Z,-0.52
2023-02-28T03:49:03.454Z,-0.54
2023-02-28T03:50:03.452Z,-0.54
2023-02-28T03:51:03.453Z,-0.54
2023-02-28T03:52:03.427Z,-0.54
2023-02-28T03:53:03.434Z,-0.54
2023-02-28T03:54:04.075Z,-0.51
2023-02-28T03:55:03.393Z,-0.52
2023-02-28T03:56:03.396Z,-0.52
2023-02-28T03:57:03.378Z,-0.55
2023-02-28T03:58:03.375Z,-0.54
2023-02-28T03:59:03.360Z,-0.52
2023-02-28T04:00:03.353Z,-0.54
2023-02-28T04:01:03.350Z,-0.55
2023-02-28T04:02:03.368Z,-0.55
2023-02-28T04:03:03.322Z,-0.54
2023-02-28T04:04:03.401Z,-0.55
2023-02-28T04:05:03.302Z,-0.54
2023-02-28T04:06:03.285Z,-0.54
2023-02-28T04:07:03.275Z,-0.55
2023-02-28T04:08:03.265Z,-0.57
2023-02-28T04:09:03.358Z,-0.54
2023-02-28T04:10:03.248Z,-0.54
2023-02-28T04:11:03.241Z,-0.54
2023-02-28T04:12:03.236Z,-0.55
2023-02-28T04:13:03.206Z,-0.54
2023-02-28T04:14:03.220Z,-0.55
2023-02-28T04:15:03.203Z,-0.57
2023-02-28T04:16:03.288Z,-0.54
2023-02-28T04:17:03.180Z,-0.55
2023-02-28T04:18:03.177Z,-0.55
2023-02-28T04:19:03.374Z,-0.55
2023-02-28T04:20:03.175Z,-0.54
2023-02-28T04:21:03.126Z,-0.54
2023-02-28T04:22:03.134Z,-0.55
2023-02-28T04:23:03.134Z,-0.54
2023-02-28T04:24:03.131Z,-0.55
2023-02-28T04:25:03.095Z,-0.55
2023-02-28T04:26:03.099Z,-0.55
2023-02-28T04:27:03.078Z,-0.55
2023-02-28T04:28:03.067Z,-0.57
2023-02-28T04:29:03.052Z,-0.54
2023-02-28T04:30:03.051Z,-0.54
2023-02-28T04:31:03.036Z,-0.51
2023-02-28T04:32:03.166Z,-0.54
2023-02-28T04:33:03.009Z,-0.55
2023-02-28T04:34:02.998Z,-0.52
2023-02-28T04:35:03.000Z,-0.55
2023-02-28T04:36:03.041Z,-0.55
2023-02-28T04:37:12.933Z,-0.55
2023-02-28T04:38:03.964Z,-0.55
2023-02-28T04:39:02.959Z,-0.54
2023-02-28T04:40:02.955Z,-0.54
2023-02-28T04:41:02.977Z,-0.57
2023-02-28T04:42:02.931Z,-0.57
2023-02-28T04:43:02.942Z,-0.57
2023-02-28T04:44:02.918Z,-0.58
2023-02-28T04:45:02.912Z,-0.60
2023-02-28T04:46:02.996Z,-0.58
2023-02-28T04:47:02.991Z,-0.58
2023-02-28T04:48:02.859Z,-0.58
2023-02-28T04:49:02.861Z,-0.58
2023-02-28T04:50:02.856Z,-0.58
2023-02-28T04:51:02.839Z,-0.60
2023-02-28T04:52:02.818Z,-0.60
2023-02-28T04:53:02.850Z,-0.60
2023-02-28T04:54:02.810Z,-0.60
2023-02-28T04:55:02.815Z,-0.60
2023-02-28T04:56:02.793Z,-0.58
2023-02-28T04:57:02.782Z,-0.58
2023-02-28T04:58:02.772Z,-0.60
2023-02-28T04:59:02.910Z,-0.58
2023-02-28T05:00:02.736Z,-0.61
2023-02-28T05:01:02.741Z,-0.60
2023-02-28T05:02:02.733Z,-0.60
2023-02-28T05:03:02.722Z,-0.58
2023-02-28T05:04:02.711Z,-0.61
2023-02-28T05:05:02.792Z,-0.60
2023-02-28T05:06:02.682Z,-0.60
2023-02-28T05:07:02.679Z,-0.61
2023-02-28T05:08:02.662Z,-0.61
2023-02-28T05:09:02.671Z,-0.61
2023-02-28T05:10:02.660Z,-0.60
2023-02-28T05:11:02.765Z,-0.58
2023-02-28T05:12:02.625Z,-0.58
2023-02-28T05:13:03.434Z,-0.61
2023-02-28T05:14:02.615Z,-0.60
2023-02-28T05:15:02.601Z,-0.58
2023-02-28T05:16:02.621Z,-0.60
2023-02-28T05:17:02.593Z,-0.60
2023-02-28T05:18:02.562Z,-0.61
2023-02-28T05:19:02.664Z,-0.57
2023-02-28T05:20:14.804Z,-0.58
2023-02-28T05:21:03.544Z,-0.58
2023-02-28T05:22:02.621Z,-0.60
2023-02-28T05:23:02.524Z,-0.60
2023-02-28T05:24:02.504Z,-0.58
2023-02-28T05:25:02.511Z,-0.60
2023-02-28T05:26:02.497Z,-0.60
2023-02-28T05:27:02.483Z,-0.60
2023-02-28T05:28:02.472Z,-0.60
2023-02-28T05:29:02.462Z,-0.62
2023-02-28T05:30:02.441Z,-0.60
2023-02-28T05:31:02.583Z,-0.60
2023-02-28T05:32:02.539Z,-0.61
2023-02-28T05:33:02.431Z,-0.61
2023-02-28T05:34:02.417Z,-0.62
2023-02-28T05:35:02.403Z,-0.62
2023-02-28T05:36:02.606Z,-0.61
2023-02-28T05:37:02.383Z,-0.62
2023-02-28T05:38:02.363Z,-0.62
2023-02-28T05:39:02.364Z,-0.62
2023-02-28T05:40:02.359Z,-0.62
2023-02-28T05:41:02.344Z,-0.64
2023-02-28T05:42:02.372Z,-0.65
2023-02-28T05:43:02.325Z,-0.64
2023-02-28T05:44:02.351Z,-0.64
2023-02-28T05:45:02.304Z,-0.64
2023-02-28T05:46:02.343Z,-0.64
2023-02-28T05:47:02.309Z,-0.62
2023-02-28T05:48:02.264Z,-0.62
2023-02-28T05:49:02.339Z,-0.62
2023-02-28T05:50:02.245Z,-0.64
2023-02-28T05:51:02.247Z,-0.62
2023-02-28T05:52:02.225Z,-0.64
2023-02-28T05:53:02.234Z,-0.62
2023-02-28T05:54:02.234Z,-0.64
2023-02-28T05:55:02.207Z,-0.64
2023-02-28T05:56:02.190Z,-0.62
2023-02-28T05:57:02.851Z,-0.62
2023-02-28T05:58:02.168Z,-0.64
2023-02-28T05:59:02.168Z,-0.64
2023-02-28T06:00:02.181Z,-0.67
2023-02-28T06:01:02.173Z,-0.67
2023-02-28T06:02:02.177Z,-0.65
2023-02-28T06:03:02.163Z,-0.65
2023-02-28T06:04:02.136Z,-0.67
2023-02-28T06:05:02.120Z,-0.65
2023-02-28T06:06:02.101Z,-0.65
2023-02-28T06:07:02.091Z,-0.65
2023-02-28T06:08:02.072Z,-0.64
2023-02-28T06:09:02.082Z,-0.65
2023-02-28T06:10:02.053Z,-0.64
2023-02-28T06:11:02.052Z,-0.65
2023-02-28T06:12:02.049Z,-0.65
2023-02-28T06:13:02.042Z,-0.62
2023-02-28T06:14:02.013Z,-0.62
2023-02-28T06:15:02.024Z,-0.62
2023-02-28T06:16:01.998Z,-0.64
2023-02-28T06:17:02.130Z,-0.62
2023-02-28T06:18:01.987Z,-0.61
2023-02-28T06:19:02.067Z,-0.62
2023-02-28T06:20:01.955Z,-0.62
2023-02-28T06:21:01.964Z,-0.61
2023-02-28T06:22:01.957Z,-0.61
2023-02-28T06:23:01.951Z,-0.62
2023-02-28T06:24:01.915Z,-0.64
2023-02-28T06:25:01.917Z,-0.62
2023-02-28T06:26:01.895Z,-0.61
2023-02-28T06:27:01.908Z,-0.61
2023-02-28T06:28:01.884Z,-0.60
2023-02-28T06:29:01.896Z,-0.61
2023-02-28T06:30:01.867Z,-0.61
2023-02-28T06:31:01.884Z,-0.61
2023-02-28T06:32:01.872Z,-0.64
2023-02-28T06:33:01.851Z,-0.61
2023-02-28T06:34:01.867Z,-0.60
2023-02-28T06:35:01.826Z,-0.60
2023-02-28T06:36:01.886Z,-0.61
2023-02-28T06:37:01.799Z,-0.58
2023-02-28T06:38:01.816Z,-0.60
2023-02-28T06:39:01.790Z,-0.60
2023-02-28T06:40:01.769Z,-0.60
2023-02-28T06:41:01.775Z,-0.58
2023-02-28T06:42:01.771Z,-0.58
2023-02-28T06:43:01.746Z,-0.57
2023-02-28T06:44:01.748Z,-0.58
2023-02-28T06:45:01.721Z,-0.54
2023-02-28T06:46:01.718Z,-0.55
2023-02-28T06:47:01.716Z,-0.52
2023-02-28T06:48:01.704Z,-0.52
2023-02-28T06:49:01.696Z,-0.47
2023-02-28T06:50:01.727Z,-0.49
2023-02-28T06:51:01.665Z,-0.46
2023-02-28T06:52:01.646Z,-0.44
2023-02-28T06:53:01.659Z,-0.46
2023-02-28T06:54:01.647Z,-0.43
2023-02-28T06:55:01.625Z,-0.43
2023-02-28T06:56:01.622Z,-0.43
2023-02-28T06:57:01.616Z,-0.43
2023-02-28T06:58:01.612Z,-0.43
2023-02-28T06:59:01.593Z,-0.43
2023-02-28T07:00:01.626Z,-0.43
2023-02-28T07:01:01.603Z,-0.40
2023-02-28T07:02:01.616Z,-0.39
2023-02-28T07:03:01.550Z,-0.37
2023-02-28T07:04:01.554Z,-0.37
2023-02-28T07:05:01.542Z,-0.33
2023-02-28T07:06:01.516Z,-0.31
2023-02-28T07:07:01.511Z,-0.31
2023-02-28T07:08:01.482Z,-0.29
2023-02-28T07:09:01.490Z,-0.28
2023-02-28T07:10:01.576Z,-0.28
2023-02-28T07:11:01.471Z,-0.26
2023-02-28T07:12:01.453Z,-0.26
2023-02-28T07:13:01.455Z,-0.26
2023-02-28T07:14:01.425Z,-0.23
2023-02-28T07:15:01.420Z,-0.22
2023-02-28T07:16:01.426Z,-0.23
2023-02-28T07:17:02.147Z,-0.21
2023-02-28T07:18:01.388Z,-0.22
2023-02-28T07:19:01.394Z,-0.19
2023-02-28T07:20:01.372Z,-0.19
2023-02-28T07:21:01.361Z,-0.16
2023-02-28T07:22:01.353Z,-0.15
2023-02-28T07:23:01.341Z,-0.11
2023-02-28T07:24:01.340Z,-0.10
2023-02-28T07:25:01.321Z,-0.08
2023-02-28T07:26:01.325Z,-0.04
2023-02-28T07:27:01.303Z,-0.05
2023-02-28T07:28:02.101Z,-0.01
2023-02-28T07:29:01.287Z,-0.01
2023-02-28T07:30:01.723Z,-0.01
2023-02-28T07:31:01.525Z,0.04
2023-02-28T07:32:01.315Z,0.07
2023-02-28T07:33:02.039Z,0.10
2023-02-28T07:34:01.383Z,0.10
2023-02-28T07:35:01.236Z,0.10
2023-02-28T07:36:01.262Z,0.14
2023-02-28T07:37:01.205Z,0.14
2023-02-28T07:38:01.188Z,0.18
2023-02-28T07:39:01.200Z,0.18
2023-02-28T07:40:01.192Z,0.18
2023-02-28T07:41:01.165Z,0.23
2023-02-28T07:42:01.168Z,0.24
2023-02-28T07:43:01.154Z,0.28
2023-02-28T07:44:01.130Z,0.31
2023-02-28T07:45:01.141Z,0.31
2023-02-28T07:46:01.111Z,0.33
2023-02-28T07:47:01.144Z,0.38
2023-02-28T07:48:01.080Z,0.44
2023-02-28T07:49:01.103Z,0.50
2023-02-28T07:50:01.071Z,0.50
2023-02-28T07:51:01.083Z,0.50
2023-02-28T07:52:01.048Z,0.50
2023-02-28T07:53:01.060Z,0.49
2023-02-28T07:54:01.164Z,0.49
2023-02-28T07:55:01.033Z,0.49
2023-02-28T07:56:01.016Z,0.55
2023-02-28T07:57:01.016Z,0.61
2023-02-28T07:58:01.008Z,0.69
2023-02-28T07:59:00.985Z,0.75
2023-02-28T08:00:00.979Z,0.80
2023-02-28T08:01:00.973Z,0.88
2023-02-28T08:02:01.019Z,0.90
2023-02-28T08:03:00.959Z,0.90
2023-02-28T08:04:00.924Z,0.80
2023-02-28T08:05:00.991Z,0.86
2023-02-28T08:06:00.897Z,0.88
2023-02-28T08:07:00.926Z,0.83
2023-02-28T08:08:00.878Z,0.83
2023-02-28T08:09:00.888Z,0.80
2023-02-28T08:10:00.858Z,0.80
2023-02-28T08:11:00.860Z,0.84
2023-02-28T08:12:00.857Z,0.84
2023-02-28T08:13:00.837Z,0.86
2023-02-28T08:14:00.824Z,0.90
2023-02-28T08:15:00.835Z,0.94
2023-02-28T08:16:00.829Z,1.04
2023-02-28T08:17:00.797Z,1.06
2023-02-28T08:18:00.782Z,1.09
2023-02-28T08:19:00.787Z,1.14
2023-02-28T08:20:00.826Z,1.23
2023-02-28T08:21:00.750Z,1.29
2023-02-28T08:22:00.747Z,1.36
2023-02-28T08:23:00.727Z,1.40
2023-02-28T08:24:00.721Z,1.37
2023-02-28T08:25:00.747Z,1.42
2023-02-28T08:26:00.692Z,1.47
2023-02-28T08:27:00.687Z,1.47
2023-02-28T08:28:00.688Z,1.48
2023-02-28T08:29:01.782Z,1.48
2023-02-28T08:30:00.648Z,1.54
2023-02-28T08:31:00.670Z,1.60
2023-02-28T08:32:00.805Z,1.58
2023-02-28T08:33:00.703Z,1.58
2023-02-28T08:34:00.598Z,1.51
2023-02-28T08:35:00.621Z,1.50
2023-02-28T08:36:00.721Z,1.45
2023-02-28T08:37:00.594Z,1.42
2023-02-28T08:38:00.600Z,1.48
2023-02-28T08:39:00.571Z,1.47
2023-02-28T08:40:00.542Z,1.50
2023-02-28T08:41:00.543Z,1.37
2023-02-28T08:42:07.526Z,1.37
2023-02-28T08:43:01.532Z,1.34
2023-02-28T08:44:01.332Z,1.37
2023-02-28T08:45:00.500Z,1.40
2023-02-28T08:46:00.539Z,1.37
2023-02-28T08:47:00.480Z,1.37
2023-02-28T08:48:01.259Z,1.32
2023-02-28T08:49:00.449Z,1.34
2023-02-28T08:50:00.445Z,1.37
2023-02-28T08:51:07.076Z,1.36
2023-02-28T08:52:01.431Z,1.37
2023-02-28T08:53:00.415Z,1.42
2023-02-28T08:54:00.407Z,1.41
2023-02-28T08:55:00.419Z,1.40
2023-02-28T08:56:00.378Z,1.32
2023-02-28T08:57:00.396Z,1.20
2023-02-28T08:58:00.375Z,1.23
2023-02-28T08:59:00.349Z,1.22
2023-02-28T09:00:00.354Z,1.16
2023-02-28T09:01:00.358Z,1.20
2023-02-28T09:02:00.327Z,1.27
2023-02-28T09:03:00.299Z,1.32
2023-02-28T09:04:00.344Z,1.33
2023-02-28T09:05:00.308Z,1.40
2023-02-28T09:06:00.279Z,1.45
2023-02-28T09:07:00.271Z,1.48
2023-02-28T09:08:00.275Z,1.52
2023-02-28T09:09:00.239Z,1.50
2023-02-28T09:10:00.240Z,1.40
2023-02-28T09:11:02.250Z,1.30
2023-02-28T09:12:00.210Z,1.37
2023-02-28T09:13:00.199Z,1.33
2023-02-28T09:14:00.248Z,1.40
2023-02-28T09:15:00.186Z,1.42
2023-02-28T09:16:00.170Z,1.42
2023-02-28T09:17:00.360Z,1.50
2023-02-28T09:18:00.150Z,1.51
2023-02-28T09:19:00.157Z,1.55
2023-02-28T09:20:00.162Z,1.62
2023-02-28T09:21:00.111Z,1.59
2023-02-28T09:22:00.120Z,1.58
2023-02-28T09:23:00.129Z,1.50
2023-02-28T09:24:00.119Z,1.51
2023-02-28T09:25:00.096Z,1.59
2023-02-28T09:26:00.078Z,1.58
2023-02-28T09:27:05.031Z,1.58
2023-02-28T09:28:01.055Z,1.51
2023-02-28T09:29:00.051Z,1.51
2023-02-28T09:30:00.035Z,1.62
2023-02-28T09:31:00.157Z,1.58
2023-02-28T09:32:00.118Z,1.58
2023-02-28T09:33:00.352Z,1.70
2023-02-28T09:34:00.023Z,1.76
2023-02-28T09:34:59.980Z,1.76
2023-02-28T09:35:59.990Z,1.77
2023-02-28T09:37:00.063Z,1.77
2023-02-28T09:37:59.948Z,1.80
2023-02-28T09:38:59.928Z,1.84
2023-02-28T09:39:59.933Z,1.86
2023-02-28T09:40:59.912Z,1.91
2023-02-28T09:41:59.908Z,1.83
2023-02-28T09:42:59.900Z,1.86
2023-02-28T09:43:59.888Z,1.95
2023-02-28T09:44:59.866Z,2.03
2023-02-28T09:45:59.932Z,2.00
2023-02-28T09:46:59.870Z,2.02
2023-02-28T09:47:59.861Z,2.02
2023-02-28T09:48:59.832Z,2.07
2023-02-28T09:49:59.821Z,2.06
2023-02-28T09:50:59.810Z,2.12
2023-02-28T09:51:59.831Z,2.12
2023-02-28T09:52:59.799Z,2.17
2023-02-28T09:54:02.018Z,2.12
2023-02-28T09:54:59.762Z,2.00
2023-02-28T09:55:59.792Z,1.83
2023-02-28T09:56:59.752Z,1.88
2023-02-28T09:57:59.748Z,1.98
2023-02-28T09:58:59.722Z,2.07
2023-02-28T09:59:59.724Z,2.18
2023-02-28T10:00:59.754Z,2.24
2023-02-28T10:01:59.724Z,2.30
2023-02-28T10:02:59.691Z,2.27
2023-02-28T10:03:59.684Z,2.34
2023-02-28T10:04:59.735Z,2.31
2023-02-28T10:05:59.681Z,2.31
2023-02-28T10:06:59.650Z,2.35
2023-02-28T10:07:59.654Z,2.42
2023-02-28T10:08:59.635Z,2.38
2023-02-28T10:09:59.627Z,2.35
2023-02-28T10:10:59.604Z,2.27
2023-02-28T10:11:59.647Z,2.34
2023-02-28T10:12:59.600Z,2.36
2023-02-28T10:13:59.576Z,2.34
2023-02-28T10:14:59.648Z,2.24
2023-02-28T10:15:59.630Z,2.12
2023-02-28T10:16:59.561Z,2.23
2023-02-28T10:18:08.573Z,2.34
2023-02-28T10:19:00.525Z,2.35
2023-02-28T10:19:59.537Z,2.35
2023-02-28T10:20:59.506Z,2.39
2023-02-28T10:21:59.496Z,2.36
2023-02-28T10:22:59.474Z,2.31
2023-02-28T10:23:59.476Z,2.30
2023-02-28T10:24:59.533Z,2.16
2023-02-28T10:25:59.450Z,2.21
2023-02-28T10:26:59.441Z,2.25
2023-02-28T10:27:59.439Z,2.25
2023-02-28T10:28:59.444Z,2.25
2023-02-28T10:29:59.439Z,2.21
2023-02-28T10:30:59.423Z,2.24
2023-02-28T10:31:59.438Z,2.14
2023-02-28T10:32:59.402Z,2.16
2023-02-28T10:33:59.371Z,2.31
2023-02-28T10:34:59.357Z,2.38
2023-02-28T10:35:59.393Z,2.35
2023-02-28T10:36:59.341Z,2.52
2023-02-28T10:37:59.342Z,2.48
2023-02-28T10:38:59.322Z,2.45
2023-02-28T10:39:59.319Z,2.24
2023-02-28T10:40:59.322Z,2.30
2023-02-28T10:41:59.303Z,2.52
2023-02-28T10:42:59.282Z,2.63
2023-02-28T10:43:59.281Z,2.77
2023-02-28T10:44:59.651Z,2.92
2023-02-28T10:45:59.319Z,2.99
2023-02-28T10:46:59.244Z,3.03
2023-02-28T10:47:59.268Z,2.99
2023-02-28T10:48:59.214Z,2.85
2023-02-28T10:49:59.214Z,2.78
2023-02-28T10:50:59.203Z,2.72
2023-02-28T10:51:59.200Z,2.77
2023-02-28T10:52:59.173Z,2.81
2023-02-28T10:54:02.094Z,2.89
2023-02-28T10:54:59.166Z,2.92
2023-02-28T10:55:59.206Z,2.85
2023-02-28T10:56:59.138Z,2.75
2023-02-28T10:57:59.125Z,2.71
2023-02-28T10:58:59.148Z,2.74
2023-02-28T10:59:59.115Z,2.74
2023-02-28T11:00:59.110Z,2.81
2023-02-28T11:01:59.190Z,2.72
2023-02-28T11:02:59.069Z,2.78
2023-02-28T11:03:59.167Z,2.93
2023-02-28T11:04:59.097Z,2.87
2023-02-28T11:05:59.044Z,2.72
2023-02-28T11:06:59.038Z,2.57
2023-02-28T11:07:59.038Z,2.71
2023-02-28T11:08:59.004Z,2.79
2023-02-28T11:09:59.024Z,2.81
2023-02-28T11:10:58.984Z,2.82
2023-02-28T11:11:58.999Z,2.84
2023-02-28T11:13:00.859Z,2.82
2023-02-28T11:13:58.966Z,2.85
2023-02-28T11:14:58.946Z,2.96
2023-02-28T11:15:59.017Z,2.99
2023-02-28T11:16:58.924Z,2.96
2023-02-28T11:17:58.934Z,2.90
2023-02-28T11:18:58.905Z,2.93
2023-02-28T11:19:58.896Z,2.95
2023-02-28T11:20:58.883Z,2.99
2023-02-28T11:21:58.889Z,2.95
2023-02-28T11:22:58.864Z,3.03
2023-02-28T11:23:58.892Z,3.15
2023-02-28T11:24:58.835Z,3.24
2023-02-28T11:25:58.848Z,3.20
2023-02-28T11:26:58.890Z,3.28
2023-02-28T11:27:58.825Z,3.28
2023-02-28T11:28:58.794Z,3.21
2023-02-28T11:29:58.836Z,3.18
2023-02-28T11:30:58.862Z,2.96
2023-02-28T11:31:58.821Z,2.85
2023-02-28T11:32:58.903Z,3.11
2023-02-28T11:33:58.756Z,3.18
2023-02-28T11:34:58.756Z,3.29
2023-02-28T11:35:58.976Z,3.23
2023-02-28T11:36:58.732Z,3.26
2023-02-28T11:37:58.707Z,3.20
2023-02-28T11:38:58.737Z,3.15
2023-02-28T11:39:58.689Z,3.23
2023-02-28T11:40:58.678Z,3.11
2023-02-28T11:41:59.154Z,3.18
2023-02-28T11:42:58.655Z,3.20
2023-02-28T11:43:58.669Z,3.28
2023-02-28T11:44:58.656Z,3.33
2023-02-28T11:45:58.627Z,3.28
2023-02-28T11:46:58.607Z,3.24
2023-02-28T11:47:58.621Z,3.23
2023-02-28T11:48:58.597Z,3.32
2023-02-28T11:49:58.609Z,3.15
2023-02-28T11:50:58.572Z,3.02
2023-02-28T11:51:58.574Z,3.08
2023-02-28T11:52:58.546Z,3.14
2023-02-28T11:53:58.562Z,2.97
2023-02-28T11:54:58.521Z,2.93
2023-02-28T11:55:58.522Z,2.97
2023-02-28T11:56:58.510Z,3.00
2023-02-28T11:57:58.505Z,3.08
2023-02-28T11:58:58.502Z,3.26
2023-02-28T11:59:58.504Z,3.47
2023-02-28T12:00:58.494Z,3.68
2023-02-28T12:01:58.499Z,3.70
2023-02-28T12:02:58.482Z,3.76
2023-02-28T12:03:58.464Z,3.58
2023-02-28T12:04:58.517Z,3.39
2023-02-28T12:05:58.421Z,3.42
2023-02-28T12:06:58.422Z,3.26
2023-02-28T12:07:58.402Z,3.18
2023-02-28T12:08:58.391Z,3.29
2023-02-28T12:09:58.571Z,3.42
2023-02-28T12:10:58.523Z,3.62
2023-02-28T12:11:58.377Z,3.83
2023-02-28T12:12:58.353Z,3.70
2023-02-28T12:13:58.387Z,3.72
2023-02-28T12:14:58.335Z,3.70
2023-02-28T12:15:58.413Z,3.61
2023-02-28T12:16:58.308Z,3.52
2023-02-28T12:17:58.313Z,3.66
2023-02-28T12:18:58.292Z,3.78
2023-02-28T12:19:58.288Z,3.80
2023-02-28T12:20:58.267Z,3.70
2023-02-28T12:21:58.273Z,3.68
2023-02-28T12:22:58.267Z,3.55
2023-02-28T12:23:58.249Z,3.62
2023-02-28T12:24:58.381Z,3.52
2023-02-28T12:25:59.028Z,3.57
2023-02-28T12:26:58.201Z,3.50
2023-02-28T12:27:58.198Z,3.45
2023-02-28T12:28:58.181Z,3.35
2023-02-28T12:29:58.178Z,3.48
2023-02-28T12:30:58.163Z,3.43
2023-02-28T12:31:58.224Z,3.57
2023-02-28T12:32:58.136Z,3.52
2023-02-28T12:33:58.134Z,3.47
2023-02-28T12:34:58.127Z,3.43
2023-02-28T12:35:58.396Z,3.48
2023-02-28T12:36:58.099Z,3.57
2023-02-28T12:37:58.099Z,3.65
2023-02-28T12:38:58.078Z,3.62
2023-02-28T12:39:58.090Z,3.50
2023-02-28T12:40:58.067Z,3.33
2023-02-28T12:41:58.062Z,3.54
2023-02-28T12:42:58.032Z,3.70
2023-02-28T12:43:58.080Z,3.58
2023-02-28T12:44:58.015Z,3.58
2023-02-28T12:45:58.207Z,3.52
2023-02-28T12:46:57.998Z,3.50
2023-02-28T12:47:57.982Z,3.55
2023-02-28T12:48:58.006Z,3.65
2023-02-28T12:49:57.960Z,3.75
2023-02-28T12:50:57.959Z,3.78
2023-02-28T12:51:57.950Z,3.80
2023-02-28T12:52:57.929Z,3.78
2023-02-28T12:53:57.919Z,3.65
2023-02-28T12:54:57.900Z,3.65
2023-02-28T12:55:57.950Z,3.51
2023-02-28T12:56:57.880Z,3.36
2023-02-28T12:57:57.884Z,3.36
2023-02-28T12:58:57.863Z,3.18
2023-02-28T12:59:57.852Z,3.26
2023-02-28T13:00:57.891Z,3.33
2023-02-28T13:01:57.844Z,3.40
2023-02-28T13:02:59.006Z,3.42